Steelton, PA (17113)

6:36 AM EST on December 20, 2014 (GMT -0500)
Lenker Manor | Change Station
CLOSE
Current Station
Personal Weather Station
Location: Harrisburg, PA
Elevation: 435 ft
Nearby Weather Stations

Elev 435 ft 40.26 °N, 76.83 °W | Updated 54 seconds ago

Mostly Cloudy
Mostly Cloudy
30.7 °F
Feels Like 31 °F
N
0.0
Wind Variable Wind from North
Gusts 0.7 mph

Today
High -- | Low -- °F
--% Chance of Precip.
Yesterday
High -- | Low -- °F
Precip. -- in
7:25 AM 4:44 PM
Waning Crescent, 3% visible
Pressure 30.25 in
Visibility 10.0 miles
Clouds Mostly Cloudy 2900 ft
Windchill 31 °F
Dew Point 19 °F
Humidity 61%
Rainfall 0.00 in
Snow Depth Not available.
UV 0 out of 12
Pollen .10 out of 12
Air Quality Not available.
Flu Activity Not available.
SPECI KCXY 201109Z AUTO 36007KT 10SM BKN029 M01/M07 A3025 RMK AO2 T10061072

More Conditions Fewer Conditions

Pressure 30.25 in
Visibility 10.0 miles
Clouds Mostly Cloudy 2900 ft
Windchill 31 °F
Dew Point 19 °F
Humidity 61%
Rainfall 0.00 in
Snow Depth Not available.
UV 0 out of 12
Pollen .10 out of 12
Air Quality Not available.
Flu Activity Not available.
SPECI KCXY 201109Z AUTO 36007KT 10SM BKN029 M01/M07 A3025 RMK AO2 T10061072

More Conditions Fewer Conditions

10-Day Weather Forecast

Almanac

Astronomy

Dec. 20, 2014 Rise Set
Actual Time
Civil Twilight
Nautical Twilight
Astronomical Twilight
Moon
Length of Visible Light
Length of Day
Tomorrow will be .
, % of the Moon is Illuminated

Today's Extremes

State Highs State Lows

Community

WunderPhotos

Upload Photos

1,779,151 photos uploaded!

WunderBlogs® & News

Nearby

Air Quality

  Air Quality AQ Index Pollutant
Not available.

Snow Depth

Station Depth Elevation

Earthquake Activity

City Distance Mag. Time & Date
Minimum magnitude displayed is 2.5.

Coastal Water Temperatures

Place Temperature

Nearby Weather Stations